METAR AND TAF INFORMATION
METAR FOR SEST
ADDS - METARS form results

(1821 UTC 05 December 2020)
Data provider http://aviationweather.gov/metar/data/
 
METAR text: SEST 051800Z 19013KT 9999 FEW023 26/22 Q1012 RMK A2990
Conditions at: SEST (SAN CRISTOBAL IS, EC) observed 1800 UTC 05 December 2020
Temperature: 26.0°C (79°F)
Dewpoint: 22.0°C (72°F) [RH = 79%]
Pressure (altimeter): 29.88 inches Hg (1012.0 mb)
Winds: from the S (190 degrees) at 15 MPH (13 knots; 6.7 m/s)
Visibility: 6 or more miles (10+ km)
Ceiling: at least 12,000 feet AGL
Clouds: few clouds at 2300 feet AGL
Weather: no significant weather observed at this time

 AIRPORT MAP

 RUNWAY INFORMATION
Runway 16 Runway length 6214 ft Runway width 66 ft
Runway elevation 27 ft Runway displaced threshold 0 ft Runway heading 169
Runway 34 Runway length 6214 ft Runway width 66 ft
Runway elevation 52 ft Runway displaced threshold 0 ft Runway heading 349

 AIRPORT FREQUENCIES
Type TWR Name TWR Frequency 122.5 MHZ

 AIRPORT NEAR NAVIGATION AIDS
Type NDB Name San Cristobal Frequency 300 KHZ
Type VOR-DME Name San Cristobal Frequency 113100 KHZ